Check out our new PWSWeather beta!
PWSweather.com
Personal Weather Stations
Station Observations
PEISSEN1
PeissenbergDE

PeissenbergDE

Lat: 47.791845, Lon: 11.064121

Elevation: 1929

Station Type: Davis Vantage Pro 2

wetter-peissenberg.de

High Low Average
Temperature 66.4°F19.1°C 37.2°F2.9°C 51.8°F11.0°C
Dew Point 40.5°F4.7°C 31.5°F-0.3°C 36.9°F2.7°C
Winds 3.9 mph 6.3 kmh Calm Calm 1.0 mph S1.6 kmh S
Wind Gusts 7.0 mph11.3 kmh -- 3.0 mph4.8 kmh
Humidity 89% 32% 61%
Pressure 30.05 in1017.6 mb 29.92 in1013.2 mb -
Precipitation 0.00 in0.0 mm - -
Hour Temp Dew Point Humidity Winds Wind Gusts Pressure Precip Precip Rate Daily Precip Total
12:00 AM 45.0°F7.2°C 40.4°F4.7°C 84% 2.3 mph WSW3.7 kmh WSW 4.0 mph6.4 kmh 30.09 in1019.0 mb 0.00 in0.0 mm 0.00 in0.0 mm 0.20 in5.1 mm
12:10 AM 45.0°F7.2°C 40.1°F4.5°C 83% 0.9 mph SW1.4 kmh SW 4.0 mph6.4 kmh 30.08 in1018.6 mb 0.00 in0.0 mm 0.00 in0.0 mm 0.20 in5.1 mm
12:20 AM 45.0°F7.2°C 40.4°F4.7°C 84% 1.6 mph N2.6 kmh N 3.0 mph4.8 kmh 30.08 in1018.6 mb 0.00 in0.0 mm 0.00 in0.0 mm 0.20 in5.1 mm
02:00 AM 44.2°F6.8°C 39.4°F4.1°C 83% 2.1 mph S3.4 kmh S 6.0 mph9.7 kmh 30.05 in1017.6 mb 0.00 in0.0 mm 0.00 in0.0 mm 0.00 in0.0 mm
02:10 AM 44.1°F6.7°C 39.2°F4.0°C 83% 0.8 mph WSW1.3 kmh WSW 2.0 mph3.2 kmh 30.05 in1017.6 mb 0.00 in0.0 mm 0.00 in0.0 mm 0.00 in0.0 mm
02:20 AM 44.1°F6.7°C 38.9°F3.8°C 82% 0.6 mph WSW1.0 kmh WSW 2.0 mph3.2 kmh 30.05 in1017.6 mb 0.00 in0.0 mm 0.00 in0.0 mm 0.00 in0.0 mm
04:00 AM 39.6°F4.2°C 36.0°F2.2°C 87% 2.4 mph N3.9 kmh N 4.0 mph6.4 kmh 30.03 in1016.9 mb 0.00 in0.0 mm 0.00 in0.0 mm 0.00 in0.0 mm
04:10 AM 39.4°F4.1°C 36.1°F2.3°C 88% 3.1 mph S5.0 kmh S 5.0 mph8.0 kmh 30.03 in1016.9 mb 0.00 in0.0 mm 0.00 in0.0 mm 0.00 in0.0 mm
04:20 AM 39.4°F4.1°C 36.1°F2.3°C 88% 1.9 mph SW3.1 kmh SW 4.0 mph6.4 kmh 30.03 in1016.9 mb 0.00 in0.0 mm 0.00 in0.0 mm 0.00 in0.0 mm
06:00 AM 37.4°F3.0°C 34.2°F1.2°C 88% Calm Calm -- 30.04 in1017.3 mb 0.00 in0.0 mm 0.00 in0.0 mm 0.00 in0.0 mm
06:10 AM 37.2°F2.9°C 34.0°F1.1°C 88% 0.2 mph SSW0.3 kmh SSW 2.0 mph3.2 kmh 30.05 in1017.6 mb 0.00 in0.0 mm 0.00 in0.0 mm 0.00 in0.0 mm
06:20 AM 37.4°F3.0°C 34.5°F1.4°C 89% 0.2 mph S0.3 kmh S 1.0 mph1.6 kmh 30.05 in1017.6 mb 0.00 in0.0 mm 0.00 in0.0 mm 0.00 in0.0 mm
08:00 AM 44.2°F6.8°C 39.1°F3.9°C 82% 1.6 mph SE2.6 kmh SE 3.0 mph4.8 kmh 30.05 in1017.6 mb 0.00 in0.0 mm 0.00 in0.0 mm 0.00 in0.0 mm
08:10 AM 45.0°F7.2°C 39.2°F4.0°C 80% 1.3 mph SE2.1 kmh SE 2.0 mph3.2 kmh 30.05 in1017.6 mb 0.00 in0.0 mm 0.00 in0.0 mm 0.00 in0.0 mm
08:20 AM 46.0°F7.8°C 40.5°F4.7°C 81% 2.8 mph SE4.5 kmh SE 4.0 mph6.4 kmh 30.05 in1017.6 mb 0.00 in0.0 mm 0.00 in0.0 mm 0.00 in0.0 mm
10:00 AM 54.1°F12.3°C 39.7°F4.3°C 58% 2.5 mph E4.0 kmh E 4.0 mph6.4 kmh 30.04 in1017.3 mb 0.00 in0.0 mm 0.00 in0.0 mm 0.00 in0.0 mm
10:10 AM 55.2°F12.9°C 36.4°F2.4°C 49% 0.5 mph SE0.8 kmh SE 2.0 mph3.2 kmh 30.04 in1017.3 mb 0.00 in0.0 mm 0.00 in0.0 mm 0.00 in0.0 mm
10:20 AM 55.6°F13.1°C 36.7°F2.6°C 49% 3.1 mph NNE5.0 kmh NNE 4.0 mph6.4 kmh 30.04 in1017.3 mb 0.00 in0.0 mm 0.00 in0.0 mm 0.00 in0.0 mm
12:00 PM 58.3°F14.6°C 31.5°F-0.3°C 36% 2.1 mph S3.4 kmh S 3.0 mph4.8 kmh 30.02 in1016.6 mb 0.00 in0.0 mm 0.00 in0.0 mm 0.00 in0.0 mm
12:10 PM 60.1°F15.6°C 38.1°F3.4°C 44% 2.4 mph S3.9 kmh S 4.0 mph6.4 kmh 30.01 in1016.3 mb 0.00 in0.0 mm 0.00 in0.0 mm 0.00 in0.0 mm
12:20 PM 60.1°F15.6°C 38.7°F3.7°C 45% 2.0 mph WSW3.2 kmh WSW 3.0 mph4.8 kmh 30.01 in1016.3 mb 0.00 in0.0 mm 0.00 in0.0 mm 0.00 in0.0 mm
02:00 PM 63.9°F17.7°C 36.4°F2.4°C 36% 3.9 mph N6.3 kmh N 7.0 mph11.3 kmh 29.98 in1015.2 mb 0.00 in0.0 mm 0.00 in0.0 mm 0.00 in0.0 mm
02:10 PM 63.9°F17.7°C 35.0°F1.7°C 34% 1.4 mph ESE2.3 kmh ESE 5.0 mph8.0 kmh 29.98 in1015.2 mb 0.00 in0.0 mm 0.00 in0.0 mm 0.00 in0.0 mm
02:20 PM 64.6°F18.1°C 36.3°F2.4°C 35% 2.1 mph N3.4 kmh N 4.0 mph6.4 kmh 29.98 in1015.2 mb 0.00 in0.0 mm 0.00 in0.0 mm 0.00 in0.0 mm
04:00 PM 64.6°F18.1°C 34.1°F1.2°C 32% 2.7 mph E4.3 kmh E 5.0 mph8.0 kmh 29.94 in1013.9 mb 0.00 in0.0 mm 0.00 in0.0 mm 0.00 in0.0 mm
04:10 PM 66.4°F19.1°C 36.4°F2.4°C 33% 3.5 mph N5.6 kmh N 5.0 mph8.0 kmh 29.94 in1013.9 mb 0.00 in0.0 mm 0.00 in0.0 mm 0.00 in0.0 mm
04:20 PM 64.9°F18.3°C 35.2°F1.8°C 33% 0.6 mph NE1.0 kmh NE 2.0 mph3.2 kmh 29.94 in1013.9 mb 0.00 in0.0 mm 0.00 in0.0 mm 0.00 in0.0 mm
06:00 PM 64.4°F18.0°C 37.6°F3.1°C 37% 0.1 mph N0.2 kmh N 1.0 mph1.6 kmh 29.92 in1013.2 mb 0.00 in0.0 mm 0.00 in0.0 mm 0.00 in0.0 mm
06:10 PM 63.9°F17.7°C 36.4°F2.4°C 36% Calm Calm -- 29.92 in1013.2 mb 0.00 in0.0 mm 0.00 in0.0 mm 0.00 in0.0 mm
06:20 PM 63.5°F17.5°C 35.4°F1.9°C 35% 1.7 mph W2.7 kmh W 3.0 mph4.8 kmh 29.92 in1013.2 mb 0.00 in0.0 mm 0.00 in0.0 mm 0.00 in0.0 mm
08:00 PM 51.8°F11.0°C 38.8°F3.8°C 61% Calm Calm -- 29.92 in1013.2 mb 0.00 in0.0 mm 0.00 in0.0 mm 0.00 in0.0 mm
08:10 PM 51.4°F10.8°C 38.9°F3.8°C 62% Calm Calm -- 29.92 in1013.2 mb 0.00 in0.0 mm 0.00 in0.0 mm 0.00 in0.0 mm
08:20 PM 50.5°F10.3°C 37.6°F3.1°C 61% Calm Calm -- 29.92 in1013.2 mb 0.00 in0.0 mm 0.00 in0.0 mm 0.00 in0.0 mm
10:00 PM 44.8°F7.1°C 37.0°F2.8°C 74% 1.5 mph SSE2.4 kmh SSE 4.0 mph6.4 kmh 29.93 in1013.5 mb 0.00 in0.0 mm 0.00 in0.0 mm 0.00 in0.0 mm
10:10 PM 44.2°F6.8°C 36.8°F2.7°C 75% Calm Calm -- 29.92 in1013.2 mb 0.00 in0.0 mm 0.00 in0.0 mm 0.00 in0.0 mm
10:20 PM 43.9°F6.6°C 37.2°F2.9°C 77% Calm Calm -- 29.92 in1013.2 mb 0.00 in0.0 mm 0.00 in0.0 mm 0.00 in0.0 mm